Packs Harbour, Canada
Current Conditions -  °F | °C
As of 12:00 AM on Wednesday 22 Oct 2014 (Local Time) from CWCA Reporting Station
Broken Clouds Broken Clouds  
Wind Chill: 28°   Ceiling: 4000
Heat Index: 36°   Visibility: 15mi
Dew Point: 30°   Wind: 10mph
Humidity: 81%   Direction: 290°WNW
Pressure: 30.22"   Gusts: NA
Location:  53.87°N, 57°W
Report Text: CWCA 220300Z 29009KT 15SM BKN040 02/M01 A3022 RMK SC7 SLP236
Loading
Personal Weather Stations






























Interactive Weather Map
Tropical Storm Tracking
New forecast layout! Learn more

10-Day Weather Forecast

Advertisements
Track Severe Weather on mobile